createdAt,value
2022-11-09T00:00:07.758Z,6.05
2022-11-09T00:02:34.516Z,7.07
2022-11-09T00:05:01.319Z,6.18
2022-11-09T00:07:30.684Z,6.87
2022-11-09T00:09:57.494Z,6.40
2022-11-09T00:12:24.366Z,7.67
2022-11-09T00:14:51.177Z,8.13
2022-11-09T00:17:17.977Z,7.38
2022-11-09T00:19:44.797Z,7.57
2022-11-09T00:22:12.359Z,8.50
2022-11-09T00:24:39.119Z,7.88
2022-11-09T00:27:05.914Z,6.43
2022-11-09T00:29:32.713Z,7.03
2022-11-09T00:31:59.473Z,9.00
2022-11-09T00:34:26.246Z,9.07
2022-11-09T00:36:53.033Z,9.43
2022-11-09T00:39:19.856Z,8.83
2022-11-09T00:41:47.638Z,6.95
2022-11-09T00:44:14.482Z,10.70
2022-11-09T00:46:41.341Z,10.40
2022-11-09T00:49:08.093Z,12.57
2022-11-09T00:51:34.880Z,9.90
2022-11-09T00:54:01.726Z,9.37
2022-11-09T00:56:28.522Z,9.20
2022-11-09T00:58:56.057Z,12.27
2022-11-09T01:01:23.054Z,12.90
2022-11-09T01:03:49.906Z,13.17
2022-11-09T01:06:21.768Z,14.03
2022-11-09T01:08:48.727Z,14.45
2022-11-09T01:11:15.795Z,13.77
2022-11-09T01:13:42.662Z,14.90
2022-11-09T01:16:12.058Z,15.10
2022-11-09T01:18:39.246Z,14.35
2022-11-09T01:21:07.244Z,13.57
2022-11-09T01:23:34.180Z,13.70
2022-11-09T01:26:02.958Z,4.43
2022-11-09T01:28:29.730Z,5.80
2022-11-09T01:30:56.569Z,4.80
2022-11-09T01:33:23.493Z,4.75
2022-11-09T01:35:50.263Z,4.75
2022-11-09T01:38:17.027Z,5.43
2022-11-09T01:40:43.817Z,5.80
2022-11-09T01:43:21.352Z,6.50
2022-11-09T01:45:56.902Z,7.18
2022-11-09T01:48:29.857Z,6.97
2022-11-09T01:51:02.117Z,6.90
2022-11-09T01:53:31.291Z,6.47
2022-11-09T01:56:00.768Z,5.53
2022-11-09T01:58:49.578Z,5.80
2022-11-09T02:01:16.534Z,5.35
2022-11-09T02:03:47.014Z,5.00
2022-11-09T02:06:14.722Z,3.80
2022-11-09T02:08:41.515Z,4.73
2022-11-09T02:11:19.402Z,5.03
2022-11-09T02:13:54.090Z,4.82
2022-11-09T02:16:20.940Z,4.73
2022-11-09T02:18:53.285Z,5.93
2022-11-09T02:21:21.020Z,5.53
2022-11-09T02:23:47.873Z,5.83
2022-11-09T02:26:22.170Z,5.00
2022-11-09T02:28:48.956Z,4.93
2022-11-09T02:31:16.106Z,5.63
2022-11-09T02:33:44.864Z,5.27
2022-11-09T02:36:11.754Z,6.00
2022-11-09T02:38:38.533Z,3.97
2022-11-09T02:41:05.524Z,4.00
2022-11-09T02:43:32.353Z,4.40
2022-11-09T02:45:59.097Z,6.43
2022-11-09T02:48:26.006Z,6.47
2022-11-09T02:50:52.757Z,7.10
2022-11-09T02:53:21.233Z,4.47
2022-11-09T02:55:48.361Z,5.68
2022-11-09T02:58:15.167Z,5.47
2022-11-09T03:00:42.211Z,5.33
2022-11-09T03:03:09.169Z,6.20
2022-11-09T03:05:35.985Z,6.10
2022-11-09T03:08:02.820Z,6.00
2022-11-09T03:10:29.700Z,5.70
2022-11-09T03:12:56.457Z,6.27
2022-11-09T03:15:23.234Z,6.77
2022-11-09T03:17:50.030Z,6.10
2022-11-09T03:20:17.040Z,5.97
2022-11-09T03:22:43.819Z,6.40
2022-11-09T03:25:10.622Z,7.53
2022-11-09T03:27:37.396Z,7.03
2022-11-09T03:30:04.484Z,8.57
2022-11-09T03:32:31.287Z,8.73
2022-11-09T03:34:58.038Z,8.57
2022-11-09T03:37:24.850Z,9.67
2022-11-09T03:39:51.670Z,9.27
2022-11-09T03:42:18.459Z,10.00
2022-11-09T03:44:45.229Z,10.23
2022-11-09T03:47:12.017Z,10.23
2022-11-09T03:49:38.945Z,10.40
2022-11-09T03:52:05.729Z,11.80
2022-11-09T03:54:32.561Z,12.03
2022-11-09T03:56:59.397Z,12.30
2022-11-09T03:59:26.231Z,12.02
2022-11-09T04:01:53.120Z,13.43
2022-11-09T04:04:19.941Z,12.38
2022-11-09T04:06:46.727Z,11.60
2022-11-09T04:09:13.592Z,13.20
2022-11-09T04:11:40.360Z,13.40
2022-11-09T04:14:07.241Z,16.67
2022-11-09T04:16:34.008Z,17.07
2022-11-09T04:19:00.796Z,18.90
2022-11-09T04:21:27.651Z,19.80
2022-11-09T04:23:54.418Z,18.37
2022-11-09T04:26:21.192Z,20.20
2022-11-09T04:28:48.044Z,20.10
2022-11-09T04:31:14.860Z,20.43
2022-11-09T04:33:41.628Z,21.93
2022-11-09T04:36:08.958Z,20.60
2022-11-09T04:38:36.632Z,24.70
2022-11-09T04:41:04.029Z,27.03
2022-11-09T04:43:30.846Z,23.47
2022-11-09T04:46:02.860Z,24.33
2022-11-09T04:48:30.545Z,26.20
2022-11-09T04:51:05.016Z,31.67
2022-11-09T04:53:31.793Z,33.77
2022-11-09T04:55:58.569Z,34.90
2022-11-09T04:58:25.558Z,35.07
2022-11-09T05:00:54.282Z,32.70
2022-11-09T05:03:21.817Z,34.73
2022-11-09T05:05:49.056Z,36.63
2022-11-09T05:08:15.864Z,35.67
2022-11-09T05:10:42.634Z,32.50
2022-11-09T05:13:11.490Z,33.77
2022-11-09T05:15:38.355Z,33.50
2022-11-09T05:18:05.350Z,37.00
2022-11-09T05:20:32.226Z,36.23
2022-11-09T05:23:18.469Z,30.53
2022-11-09T05:25:45.577Z,35.63
2022-11-09T05:28:12.481Z,36.27
2022-11-09T05:30:40.285Z,37.33
2022-11-09T05:33:07.094Z,40.10
2022-11-09T05:35:34.264Z,42.93
2022-11-09T05:38:01.088Z,50.50
2022-11-09T05:40:27.995Z,45.03
2022-11-09T05:42:56.093Z,43.57
2022-11-09T05:45:42.039Z,42.97
2022-11-09T05:48:09.253Z,33.93
2022-11-09T05:50:36.168Z,28.53
2022-11-09T05:53:02.932Z,35.90
2022-11-09T05:55:29.691Z,36.37
2022-11-09T05:57:56.627Z,40.03
2022-11-09T06:00:23.568Z,38.77
2022-11-09T06:02:50.506Z,44.30
2022-11-09T06:05:17.609Z,29.13
2022-11-09T06:07:44.416Z,33.53
2022-11-09T06:10:11.428Z,38.63
2022-11-09T06:12:38.308Z,39.07
2022-11-09T06:15:05.751Z,42.30
2022-11-09T06:17:32.529Z,40.47
2022-11-09T06:19:59.301Z,44.10
2022-11-09T06:22:26.100Z,43.17
2022-11-09T06:24:52.854Z,42.03
2022-11-09T06:27:19.621Z,48.27
2022-11-09T06:29:46.448Z,35.57
2022-11-09T06:32:13.217Z,42.40
2022-11-09T06:34:40.133Z,45.30
2022-11-09T06:37:06.893Z,45.83
2022-11-09T06:39:33.654Z,43.63
2022-11-09T06:42:00.785Z,46.70
2022-11-09T06:44:27.540Z,46.23
2022-11-09T06:46:54.317Z,46.20
2022-11-09T06:49:21.112Z,47.10
2022-11-09T06:51:47.870Z,46.60
2022-11-09T06:54:14.646Z,50.17
2022-11-09T06:56:41.517Z,51.57
2022-11-09T06:59:09.114Z,50.93
2022-11-09T07:01:37.496Z,52.57
2022-11-09T07:04:04.427Z,53.40
2022-11-09T07:06:31.260Z,49.73
2022-11-09T07:08:58.069Z,50.27
2022-11-09T07:11:24.924Z,55.83
2022-11-09T07:13:57.113Z,54.80
2022-11-09T07:16:24.456Z,51.97
2022-11-09T07:18:51.212Z,56.77
2022-11-09T07:21:18.064Z,57.10
2022-11-09T07:23:46.636Z,48.77
2022-11-09T07:26:13.437Z,51.87
2022-11-09T07:28:40.370Z,54.50
2022-11-09T07:31:07.416Z,59.63
2022-11-09T07:33:34.264Z,63.63
2022-11-09T07:36:01.707Z,61.33
2022-11-09T07:38:29.139Z,59.97
2022-11-09T07:40:59.670Z,57.30
2022-11-09T07:43:26.541Z,56.93
2022-11-09T07:45:53.296Z,52.93
2022-11-09T07:48:20.114Z,55.10
2022-11-09T07:50:47.912Z,52.80
2022-11-09T07:53:15.122Z,47.27
2022-11-09T07:55:42.183Z,49.20
2022-11-09T07:58:12.862Z,52.53
2022-11-09T08:00:41.097Z,50.63
2022-11-09T08:03:08.227Z,51.70
2022-11-09T08:05:35.172Z,47.27
2022-11-09T08:08:03.954Z,47.50
2022-11-09T08:10:31.671Z,48.67
2022-11-09T08:13:13.461Z,46.73
2022-11-09T08:15:40.874Z,43.40
2022-11-09T08:18:10.458Z,48.33
2022-11-09T08:20:37.330Z,49.00
2022-11-09T08:23:04.979Z,44.80
2022-11-09T08:25:35.714Z,45.27
2022-11-09T08:28:03.674Z,45.23
2022-11-09T08:30:30.721Z,45.20
2022-11-09T08:32:58.730Z,41.17
2022-11-09T08:35:25.702Z,38.87
2022-11-09T08:37:52.956Z,37.37
2022-11-09T08:40:21.666Z,34.50
2022-11-09T08:42:48.604Z,36.13
2022-11-09T08:45:15.637Z,33.63
2022-11-09T08:47:42.569Z,34.50
2022-11-09T08:50:10.141Z,33.63
2022-11-09T08:52:37.146Z,33.50
2022-11-09T08:55:04.405Z,33.60
2022-11-09T08:57:31.314Z,37.27
2022-11-09T08:59:58.105Z,41.60
2022-11-09T09:02:24.900Z,39.27
2022-11-09T09:04:51.709Z,36.57
2022-11-09T09:07:18.576Z,38.03
2022-11-09T09:09:45.364Z,39.23
2022-11-09T09:12:12.209Z,40.07
2022-11-09T09:14:39.001Z,36.30
2022-11-09T09:17:05.780Z,38.53
2022-11-09T09:19:32.657Z,35.37
2022-11-09T09:22:00.561Z,33.20
2022-11-09T09:24:27.372Z,32.70
2022-11-09T09:26:54.139Z,32.43
2022-11-09T09:29:21.080Z,32.77
2022-11-09T09:31:47.866Z,38.97
2022-11-09T09:34:15.254Z,36.70
2022-11-09T09:36:47.305Z,40.27
2022-11-09T09:39:14.702Z,40.90
2022-11-09T09:41:53.258Z,36.23
2022-11-09T09:44:30.816Z,41.87
2022-11-09T09:47:24.933Z,30.40
2022-11-09T09:50:03.240Z,27.90
2022-11-09T09:53:17.597Z,31.00
2022-11-09T09:55:40.863Z,33.53
2022-11-09T09:58:25.633Z,37.07
2022-11-09T10:00:59.039Z,36.90
2022-11-09T10:03:26.180Z,35.70
2022-11-09T10:06:20.125Z,32.23
2022-11-09T10:08:52.708Z,50.63
2022-11-09T10:11:48.834Z,55.83
2022-11-09T10:14:26.792Z,53.30
2022-11-09T10:16:59.466Z,49.63
2022-11-09T10:19:38.646Z,56.70
2022-11-09T10:22:24.994Z,26.53
2022-11-09T10:25:23.534Z,45.13
2022-11-09T10:27:54.013Z,53.37
2022-11-09T10:30:21.655Z,54.73
2022-11-09T10:32:54.555Z,62.37
2022-11-09T10:35:30.482Z,48.67
2022-11-09T10:37:57.418Z,49.87
2022-11-09T10:40:48.309Z,74.60
2022-11-09T10:43:15.407Z,71.50
2022-11-09T10:45:43.372Z,54.27
2022-11-09T10:48:11.773Z,57.53
2022-11-09T10:50:49.467Z,53.37
2022-11-09T10:53:21.237Z,48.43
2022-11-09T10:56:20.763Z,50.67
2022-11-09T10:58:49.192Z,49.05
2022-11-09T11:01:17.039Z,40.23
2022-11-09T11:03:44.191Z,38.23
2022-11-09T11:06:20.687Z,38.38
2022-11-09T11:08:51.151Z,37.35
2022-11-09T11:11:38.045Z,34.30
2022-11-09T11:14:34.942Z,30.25
2022-11-09T11:17:01.813Z,25.53
2022-11-09T11:19:47.066Z,24.07
2022-11-09T11:22:19.711Z,22.50
2022-11-09T11:24:51.146Z,20.42
2022-11-09T11:27:26.236Z,19.35
2022-11-09T11:29:58.420Z,19.75
2022-11-09T11:32:25.337Z,20.00
2022-11-09T11:35:01.026Z,19.58
2022-11-09T11:37:46.240Z,18.20
2022-11-09T11:40:30.721Z,19.93
2022-11-09T11:43:28.122Z,20.23
2022-11-09T11:46:12.682Z,20.38
2022-11-09T11:48:42.391Z,21.25
2022-11-09T11:51:18.653Z,19.93
2022-11-09T11:53:56.841Z,18.77
2022-11-09T11:56:46.708Z,20.63
2022-11-09T11:59:22.478Z,23.00
2022-11-09T12:02:10.610Z,23.40
2022-11-09T12:04:53.164Z,19.48
2022-11-09T12:07:26.000Z,17.10
2022-11-09T12:10:10.669Z,14.85
2022-11-09T12:13:05.837Z,16.40
2022-11-09T12:15:46.237Z,15.07
2022-11-09T12:18:24.939Z,13.10
2022-11-09T12:21:02.466Z,11.43
2022-11-09T12:23:44.674Z,10.57
2022-11-09T12:26:38.838Z,10.05
2022-11-09T12:29:11.706Z,10.30
2022-11-09T12:32:07.814Z,11.13
2022-11-09T12:34:56.990Z,11.73
2022-11-09T12:37:25.601Z,13.27
2022-11-09T12:39:55.618Z,14.38
2022-11-09T12:42:33.243Z,12.85
2022-11-09T12:45:15.261Z,13.82
2022-11-09T12:47:44.199Z,13.85
2022-11-09T12:50:18.784Z,13.32
2022-11-09T12:52:46.718Z,14.07
2022-11-09T12:55:19.452Z,14.83
2022-11-09T12:57:46.797Z,16.30
2022-11-09T13:00:35.385Z,16.67
2022-11-09T13:03:04.233Z,17.05
2022-11-09T13:05:32.007Z,19.63
2022-11-09T13:08:02.170Z,20.90
2022-11-09T13:10:38.843Z,19.80
2022-11-09T13:13:11.643Z,21.42
2022-11-09T13:15:39.402Z,21.83
2022-11-09T13:18:24.077Z,21.63
2022-11-09T13:20:56.449Z,22.05
2022-11-09T13:23:47.787Z,22.88
2022-11-09T13:26:32.509Z,22.40
2022-11-09T13:29:21.541Z,20.77
2022-11-09T13:32:12.932Z,17.02
2022-11-09T13:34:52.510Z,16.45
2022-11-09T13:37:41.186Z,13.27
2022-11-09T13:40:33.009Z,11.30
2022-11-09T13:43:12.948Z,7.13
2022-11-09T13:45:44.148Z,5.00
2022-11-09T13:48:29.841Z,4.70
2022-11-09T13:51:20.625Z,4.55
2022-11-09T13:53:48.866Z,3.78
2022-11-09T13:56:32.169Z,4.47
2022-11-09T13:59:22.257Z,3.30
2022-11-09T14:01:57.085Z,3.83
2022-11-09T14:04:37.840Z,3.80
2022-11-09T14:07:10.868Z,3.95
2022-11-09T14:09:53.622Z,4.43
2022-11-09T14:12:31.973Z,3.95
2022-11-09T14:15:17.897Z,6.75
2022-11-09T14:18:07.988Z,4.50
2022-11-09T14:20:39.028Z,6.13
2022-11-09T14:23:18.221Z,4.78
2022-11-09T14:25:45.573Z,2.78
2022-11-09T14:28:23.958Z,4.25
2022-11-09T14:30:50.753Z,3.83
2022-11-09T14:33:28.173Z,2.92
2022-11-09T14:35:59.561Z,4.60
2022-11-09T14:38:36.914Z,3.78
2022-11-09T14:41:03.713Z,2.55
2022-11-09T14:43:33.509Z,4.10
2022-11-09T14:46:04.805Z,3.50
2022-11-09T14:48:33.353Z,3.20
2022-11-09T14:51:01.601Z,2.70
2022-11-09T14:53:30.557Z,2.92
2022-11-09T14:55:58.642Z,3.00
2022-11-09T14:58:25.413Z,2.58
2022-11-09T15:01:28.333Z,2.65
2022-11-09T15:04:17.014Z,3.20
2022-11-09T15:06:51.979Z,2.90
2022-11-09T15:09:20.981Z,2.92
2022-11-09T15:11:48.000Z,2.97
2022-11-09T15:14:27.389Z,3.28
2022-11-09T15:17:24.276Z,2.78
2022-11-09T15:19:59.451Z,3.53
2022-11-09T15:22:54.913Z,2.53
2022-11-09T15:25:30.335Z,2.75
2022-11-09T15:27:59.346Z,2.47
2022-11-09T15:30:29.982Z,2.88
2022-11-09T15:32:58.003Z,2.60
2022-11-09T15:35:25.018Z,3.20
2022-11-09T15:37:53.650Z,2.22
2022-11-09T15:40:22.255Z,2.53
2022-11-09T15:42:49.038Z,5.05
2022-11-09T15:45:18.221Z,3.22
2022-11-09T15:47:54.830Z,3.00
2022-11-09T15:50:23.768Z,3.53
2022-11-09T15:52:50.982Z,3.20
2022-11-09T15:55:21.977Z,2.83
2022-11-09T15:57:50.165Z,3.20
2022-11-09T16:00:20.770Z,3.03
2022-11-09T16:02:48.158Z,3.08
2022-11-09T16:05:15.683Z,3.47
2022-11-09T16:07:52.841Z,3.20
2022-11-09T16:10:20.454Z,3.40
2022-11-09T16:12:47.473Z,4.03
2022-11-09T16:15:14.357Z,3.72
2022-11-09T16:17:41.171Z,4.18
2022-11-09T16:20:08.478Z,3.90
2022-11-09T16:22:35.408Z,4.37
2022-11-09T16:25:02.227Z,4.55
2022-11-09T16:27:48.987Z,4.85
2022-11-09T16:30:16.137Z,4.10
2022-11-09T16:32:42.922Z,6.85
2022-11-09T16:37:56.889Z,5.47
2022-11-09T16:40:23.761Z,5.33
2022-11-09T16:42:51.137Z,5.53
2022-11-09T16:45:17.999Z,6.28
2022-11-09T16:47:47.504Z,5.72
2022-11-09T16:50:14.586Z,6.07
2022-11-09T16:52:41.427Z,5.37
2022-11-09T16:55:09.433Z,5.97
2022-11-09T16:57:36.285Z,5.50
2022-11-09T17:00:04.836Z,5.83
2022-11-09T17:02:31.634Z,5.50
2022-11-09T17:04:58.653Z,5.60
2022-11-09T17:07:25.467Z,5.60
2022-11-09T17:09:52.245Z,6.17
2022-11-09T17:12:19.094Z,7.37
2022-11-09T17:14:45.878Z,6.57
2022-11-09T17:17:12.962Z,7.00
2022-11-09T17:19:41.171Z,8.10
2022-11-09T17:22:08.057Z,8.00
2022-11-09T17:24:34.904Z,7.63
2022-11-09T17:27:01.773Z,8.60
2022-11-09T17:29:28.592Z,7.90
2022-11-09T17:31:55.399Z,8.07
2022-11-09T17:34:22.193Z,8.07
2022-11-09T17:37:03.787Z,9.90
2022-11-09T17:39:31.753Z,11.77
2022-11-09T17:41:58.543Z,8.40
2022-11-09T17:44:26.328Z,7.50
2022-11-09T17:46:53.183Z,8.50
2022-11-09T17:49:19.952Z,8.60
2022-11-09T17:51:46.753Z,8.20
2022-11-09T17:54:15.077Z,9.70
2022-11-09T17:56:42.016Z,9.37
2022-11-09T17:59:08.866Z,8.50
2022-11-09T18:01:41.178Z,9.10
2022-11-09T18:04:09.763Z,8.87
2022-11-09T18:06:36.722Z,13.17
2022-11-09T18:09:39.166Z,15.60
2022-11-09T18:11:52.770Z,17.20
2022-11-09T18:14:19.853Z,15.90
2022-11-09T18:16:46.788Z,17.80
2022-11-09T18:19:13.671Z,19.77
2022-11-09T18:21:41.427Z,20.93
2022-11-09T18:24:08.645Z,21.97
2022-11-09T18:26:35.421Z,19.37
2022-11-09T18:29:03.211Z,19.37
2022-11-09T18:31:30.077Z,22.03
2022-11-09T18:33:56.899Z,17.00
2022-11-09T18:36:23.832Z,25.37
2022-11-09T18:38:52.100Z,27.40
2022-11-09T18:41:20.754Z,28.60
2022-11-09T18:43:47.763Z,26.33
2022-11-09T18:46:15.544Z,30.80
2022-11-09T18:48:42.498Z,28.47
2022-11-09T18:51:09.542Z,27.30
2022-11-09T18:53:41.606Z,33.07
2022-11-09T18:56:21.692Z,32.30
2022-11-09T18:58:49.420Z,34.30
2022-11-09T19:01:16.601Z,34.33
2022-11-09T19:03:43.406Z,36.77
2022-11-09T19:06:12.861Z,34.00
2022-11-09T19:08:59.206Z,38.50
2022-11-09T19:11:26.090Z,41.03
2022-11-09T19:13:53.666Z,43.10
2022-11-09T19:16:21.667Z,45.33
2022-11-09T19:18:48.546Z,44.33
2022-11-09T19:21:18.190Z,42.60
2022-11-09T19:23:44.962Z,47.03
2022-11-09T19:26:12.080Z,46.03
2022-11-09T19:28:38.911Z,47.60
2022-11-09T19:31:05.758Z,48.00
2022-11-09T19:33:32.542Z,52.23
2022-11-09T19:36:28.201Z,54.00
2022-11-09T19:38:48.511Z,55.40
2022-11-09T19:41:15.538Z,59.30
2022-11-09T19:43:42.310Z,57.60
2022-11-09T19:46:10.090Z,55.17
2022-11-09T19:48:37.196Z,56.20
2022-11-09T19:51:04.609Z,56.27
2022-11-09T19:53:31.385Z,62.00
2022-11-09T19:55:59.791Z,65.20
2022-11-09T19:58:26.903Z,61.97
2022-11-09T20:01:05.085Z,64.27
2022-11-09T20:03:32.107Z,66.83
2022-11-09T20:05:59.964Z,68.10
2022-11-09T20:08:27.015Z,66.03
2022-11-09T20:10:54.333Z,65.70
2022-11-09T20:13:21.983Z,73.03
2022-11-09T20:15:48.817Z,70.83
2022-11-09T20:18:15.811Z,74.03
2022-11-09T20:20:42.609Z,74.90
2022-11-09T20:23:09.402Z,74.93
2022-11-09T20:25:36.237Z,69.30
2022-11-09T20:28:03.065Z,68.17
2022-11-09T20:30:29.882Z,65.27
2022-11-09T20:32:56.797Z,63.90
2022-11-09T20:35:23.565Z,68.30
2022-11-09T20:37:50.402Z,64.03
2022-11-09T20:40:17.250Z,68.27
2022-11-09T20:42:44.101Z,69.60
2022-11-09T20:45:11.006Z,71.60
2022-11-09T20:48:03.233Z,67.47
2022-11-09T20:50:24.628Z,72.57
2022-11-09T20:52:51.745Z,82.07
2022-11-09T20:55:18.661Z,82.57
2022-11-09T20:57:45.462Z,76.53
2022-11-09T21:00:12.722Z,78.30
2022-11-09T21:02:39.562Z,76.87
2022-11-09T21:05:06.622Z,72.60
2022-11-09T21:07:33.425Z,73.90
2022-11-09T21:10:00.250Z,77.90
2022-11-09T21:12:27.782Z,76.70
2022-11-09T21:14:54.605Z,76.23
2022-11-09T21:17:21.523Z,79.33
2022-11-09T21:19:48.343Z,83.60
2022-11-09T21:22:15.181Z,84.10
2022-11-09T21:25:00.700Z,86.07
2022-11-09T21:27:48.137Z,85.40
2022-11-09T21:30:16.987Z,85.43
2022-11-09T21:32:43.799Z,90.23
2022-11-09T21:35:10.809Z,81.83
2022-11-09T21:37:37.647Z,84.63
2022-11-09T21:40:04.915Z,80.83
2022-11-09T21:42:31.726Z,79.70
2022-11-09T21:44:58.525Z,85.77
2022-11-09T21:47:25.312Z,89.23
2022-11-09T21:49:52.112Z,91.60
2022-11-09T21:52:21.010Z,88.33
2022-11-09T21:54:47.861Z,95.17
2022-11-09T21:57:14.657Z,94.37
2022-11-09T21:59:41.598Z,97.23
2022-11-09T22:02:09.668Z,96.63
2022-11-09T22:04:36.492Z,96.47
2022-11-09T22:07:03.371Z,100.37
2022-11-09T22:09:50.557Z,105.47
2022-11-09T22:12:35.845Z,105.10
2022-11-09T22:15:21.242Z,113.07
2022-11-09T22:17:48.051Z,110.87
2022-11-09T22:20:33.403Z,118.27
2022-11-09T22:23:00.215Z,116.83
2022-11-09T22:25:27.175Z,113.97
2022-11-09T22:27:55.844Z,116.47
2022-11-09T22:30:22.755Z,110.63
2022-11-09T22:32:49.589Z,112.90
2022-11-09T22:35:16.466Z,119.27
2022-11-09T22:37:43.258Z,116.17
2022-11-09T22:40:10.423Z,113.70
2022-11-09T22:42:37.226Z,114.00
2022-11-09T22:45:04.323Z,109.03
2022-11-09T22:47:31.196Z,110.47
2022-11-09T22:49:57.946Z,120.40
2022-11-09T22:52:24.884Z,120.57
2022-11-09T22:54:51.696Z,115.10
2022-11-09T22:57:18.472Z,110.40
2022-11-09T22:59:45.222Z,116.87
2022-11-09T23:02:13.090Z,105.73
2022-11-09T23:04:39.849Z,110.27
2022-11-09T23:07:06.772Z,113.67
2022-11-09T23:09:33.612Z,107.23
2022-11-09T23:12:00.402Z,114.17
2022-11-09T23:14:45.934Z,104.67
2022-11-09T23:17:32.646Z,112.33
2022-11-09T23:19:59.450Z,121.73
2022-11-09T23:22:26.215Z,112.90
2022-11-09T23:25:11.646Z,113.13
2022-11-09T23:27:38.520Z,117.30
2022-11-09T23:30:05.769Z,117.43
2022-11-09T23:32:32.533Z,113.77
2022-11-09T23:34:59.385Z,113.27
2022-11-09T23:37:26.138Z,111.20
2022-11-09T23:39:52.906Z,116.60
2022-11-09T23:42:20.789Z,113.80
2022-11-09T23:44:47.594Z,107.83
2022-11-09T23:47:14.412Z,121.10
2022-11-09T23:49:41.226Z,117.23
2022-11-09T23:52:08.712Z,108.37
2022-11-09T23:54:35.524Z,86.60
2022-11-09T23:57:02.289Z,100.07
2022-11-09T23:59:29.042Z,105.37
